createdAt,value
2023-05-02T00:00:04.133Z,13.79
2023-05-02T00:02:31.729Z,13.70
2023-05-02T00:05:01.067Z,13.63
2023-05-02T00:07:28.782Z,13.55
2023-05-02T00:09:56.269Z,13.44
2023-05-02T00:12:23.730Z,13.37
2023-05-02T00:14:51.224Z,13.34
2023-05-02T00:17:19.615Z,13.38
2023-05-02T00:19:47.666Z,13.39
2023-05-02T00:22:16.459Z,13.49
2023-05-02T00:24:43.900Z,13.46
2023-05-02T00:27:11.404Z,13.37
2023-05-02T00:29:38.856Z,13.36
2023-05-02T00:32:06.995Z,13.29
2023-05-02T00:34:34.632Z,13.25
2023-05-02T00:37:02.093Z,13.36
2023-05-02T00:39:30.913Z,13.12
2023-05-02T00:41:58.741Z,12.97
2023-05-02T00:44:26.260Z,12.86
2023-05-02T00:46:53.836Z,13.02
2023-05-02T00:49:21.387Z,13.00
2023-05-02T00:51:48.877Z,13.03
2023-05-02T00:54:16.594Z,12.85
2023-05-02T00:56:45.588Z,13.02
2023-05-02T00:59:13.395Z,13.00
2023-05-02T01:01:51.610Z,13.00
2023-05-02T01:04:26.527Z,12.81
2023-05-02T01:07:01.433Z,12.90
2023-05-02T01:09:36.541Z,12.81
2023-05-02T01:12:07.664Z,12.76
2023-05-02T01:14:37.140Z,12.62
2023-05-02T01:17:06.312Z,12.66
2023-05-02T01:19:37.316Z,12.66
2023-05-02T01:22:07.930Z,12.64
2023-05-02T01:24:40.242Z,12.31
2023-05-02T01:27:17.112Z,12.37
2023-05-02T01:29:46.821Z,12.41
2023-05-02T01:32:16.336Z,12.48
2023-05-02T01:34:44.368Z,12.40
2023-05-02T01:37:12.987Z,12.25
2023-05-02T01:39:41.363Z,12.27
2023-05-02T01:42:08.831Z,12.49
2023-05-02T01:44:37.542Z,12.49
2023-05-02T01:47:07.514Z,12.30
2023-05-02T01:49:35.764Z,12.07
2023-05-02T01:52:05.709Z,12.11
2023-05-02T01:54:34.635Z,12.22
2023-05-02T01:57:03.768Z,12.29
2023-05-02T01:59:31.593Z,12.02
2023-05-02T02:02:00.649Z,12.20
2023-05-02T02:04:29.901Z,12.10
2023-05-02T02:07:03.673Z,12.07
2023-05-02T02:09:31.478Z,12.02
2023-05-02T02:12:04.548Z,12.00
2023-05-02T02:14:35.381Z,11.98
2023-05-02T02:17:03.689Z,11.97
2023-05-02T02:19:33.044Z,11.89
2023-05-02T02:22:01.552Z,11.79
2023-05-02T02:24:29.890Z,11.80
2023-05-02T02:26:57.584Z,11.73
2023-05-02T02:29:25.453Z,11.88
2023-05-02T02:31:52.915Z,11.77
2023-05-02T02:34:21.092Z,11.68
2023-05-02T02:36:54.808Z,11.82
2023-05-02T02:39:31.543Z,11.72
2023-05-02T02:42:04.621Z,11.66
2023-05-02T02:44:41.007Z,11.72
2023-05-02T02:47:13.161Z,11.65
2023-05-02T02:49:48.850Z,11.59
2023-05-02T02:52:23.441Z,11.51
2023-05-02T02:54:53.887Z,11.55
2023-05-02T02:57:35.727Z,11.27
2023-05-02T03:00:08.399Z,11.35
2023-05-02T03:02:36.984Z,11.48
2023-05-02T03:05:06.296Z,11.64
2023-05-02T03:07:35.106Z,11.43
2023-05-02T03:10:04.206Z,11.31
2023-05-02T03:12:32.004Z,11.10
2023-05-02T03:15:07.212Z,11.14
2023-05-02T03:17:34.677Z,11.03
2023-05-02T03:20:02.299Z,10.92
2023-05-02T03:22:29.915Z,11.18
2023-05-02T03:24:58.702Z,11.34
2023-05-02T03:27:26.215Z,11.37
2023-05-02T03:29:53.653Z,11.47
2023-05-02T03:32:21.217Z,11.31
2023-05-02T03:34:49.404Z,11.38
2023-05-02T03:37:16.900Z,11.60
2023-05-02T03:39:45.220Z,11.46
2023-05-02T03:42:14.077Z,11.45
2023-05-02T03:44:41.567Z,11.51
2023-05-02T03:47:09.173Z,11.51
2023-05-02T03:49:36.962Z,11.55
2023-05-02T03:52:04.420Z,11.56
2023-05-02T03:54:34.166Z,11.45
2023-05-02T03:57:01.686Z,11.55
2023-05-02T03:59:30.709Z,11.60
2023-05-02T04:01:58.196Z,11.63
2023-05-02T04:04:25.891Z,11.68
2023-05-02T04:06:53.382Z,11.78
2023-05-02T04:09:25.028Z,11.59
2023-05-02T04:11:52.754Z,11.79
2023-05-02T04:14:20.222Z,11.72
2023-05-02T04:16:50.598Z,11.46
2023-05-02T04:19:19.023Z,11.48
2023-05-02T04:21:46.612Z,11.62
2023-05-02T04:24:14.429Z,11.58
2023-05-02T04:26:41.976Z,11.53
2023-05-02T04:29:09.452Z,11.61
2023-05-02T04:31:37.132Z,11.65
2023-05-02T04:34:05.961Z,11.60
2023-05-02T04:36:34.032Z,11.62
2023-05-02T04:39:01.497Z,11.57
2023-05-02T04:41:29.107Z,11.80
2023-05-02T04:43:56.565Z,11.66
2023-05-02T04:46:24.012Z,11.69
2023-05-02T04:48:51.530Z,11.74
2023-05-02T04:51:20.317Z,11.68
2023-05-02T04:53:47.749Z,11.65
2023-05-02T04:56:15.194Z,11.92
2023-05-02T04:58:42.638Z,11.85
2023-05-02T05:01:10.240Z,11.81
2023-05-02T05:03:38.063Z,11.95
2023-05-02T05:06:05.838Z,11.97
2023-05-02T05:08:34.677Z,12.08
2023-05-02T05:11:02.528Z,12.03
2023-05-02T05:13:30.026Z,12.04
2023-05-02T05:15:57.542Z,12.19
2023-05-02T05:18:25.087Z,12.18
2023-05-02T05:20:52.534Z,12.26
2023-05-02T05:23:20.010Z,12.20
2023-05-02T05:25:48.965Z,12.26
2023-05-02T05:28:16.421Z,12.23
2023-05-02T05:30:43.873Z,12.28
2023-05-02T05:33:11.489Z,12.49
2023-05-02T05:35:39.042Z,12.51
2023-05-02T05:38:06.929Z,12.55
2023-05-02T05:40:34.379Z,12.45
2023-05-02T05:43:03.138Z,12.51
2023-05-02T05:45:30.585Z,12.65
2023-05-02T05:48:06.098Z,12.58
2023-05-02T05:50:33.572Z,12.74
2023-05-02T05:53:01.012Z,12.79
2023-05-02T05:55:28.690Z,12.88
2023-05-02T05:57:56.117Z,12.80
2023-05-02T06:00:24.962Z,12.85
2023-05-02T06:02:52.550Z,12.84
2023-05-02T06:05:20.087Z,12.85
2023-05-02T06:07:47.509Z,12.89
2023-05-02T06:10:15.144Z,12.97
2023-05-02T06:12:42.593Z,13.17
2023-05-02T06:15:10.719Z,13.30
2023-05-02T06:17:39.534Z,13.28
2023-05-02T06:20:08.423Z,13.23
2023-05-02T06:22:35.862Z,13.33
2023-05-02T06:25:05.151Z,13.23
2023-05-02T06:27:33.777Z,13.27
2023-05-02T06:30:01.675Z,13.32
2023-05-02T06:32:31.407Z,13.35
2023-05-02T06:35:00.252Z,13.40
2023-05-02T06:37:27.775Z,13.33
2023-05-02T06:39:55.229Z,13.33
2023-05-02T06:42:22.664Z,13.32
2023-05-02T06:44:50.139Z,13.24
2023-05-02T06:47:17.704Z,13.20
2023-05-02T06:49:45.251Z,13.26
2023-05-02T06:52:14.032Z,13.33
2023-05-02T06:54:42.358Z,13.43
2023-05-02T06:57:10.956Z,13.56
2023-05-02T06:59:38.422Z,13.85
2023-05-02T07:02:05.892Z,13.95
2023-05-02T07:04:33.455Z,14.06
2023-05-02T07:07:00.997Z,14.29
2023-05-02T07:09:42.346Z,14.55
2023-05-02T07:12:09.792Z,14.80
2023-05-02T07:14:37.267Z,14.99
2023-05-02T07:17:04.783Z,15.23
2023-05-02T07:19:32.282Z,15.25
2023-05-02T07:21:59.726Z,15.39
2023-05-02T07:24:27.321Z,15.33
2023-05-02T07:26:56.156Z,15.50
2023-05-02T07:29:23.787Z,15.61
2023-05-02T07:31:51.534Z,15.52
2023-05-02T07:34:19.026Z,15.41
2023-05-02T07:36:46.455Z,14.96
2023-05-02T07:39:14.069Z,14.77
2023-05-02T07:41:41.539Z,14.88
2023-05-02T07:44:10.326Z,14.74
2023-05-02T07:46:37.890Z,14.88
2023-05-02T07:49:05.748Z,14.96
2023-05-02T07:51:33.812Z,14.79
2023-05-02T07:54:01.838Z,14.75
2023-05-02T07:56:30.011Z,14.93
2023-05-02T07:58:57.548Z,14.90
2023-05-02T08:01:26.342Z,14.85
2023-05-02T08:03:54.073Z,14.35
2023-05-02T08:06:22.558Z,14.63
2023-05-02T08:08:50.084Z,14.59
2023-05-02T08:11:17.513Z,14.06
2023-05-02T08:13:45.015Z,13.96
2023-05-02T08:16:12.667Z,13.83
2023-05-02T08:18:42.255Z,13.95
2023-05-02T08:21:09.748Z,14.22
2023-05-02T08:23:37.651Z,14.31
2023-05-02T08:26:05.721Z,14.47
2023-05-02T08:28:33.214Z,14.30
2023-05-02T08:31:00.713Z,14.26
2023-05-02T08:33:28.201Z,14.16
2023-05-02T08:35:56.979Z,14.49
2023-05-02T08:38:24.453Z,14.56
2023-05-02T08:40:51.910Z,14.54
2023-05-02T08:43:19.395Z,14.31
2023-05-02T08:45:46.872Z,14.31
2023-05-02T08:48:16.773Z,14.35
2023-05-02T08:50:46.605Z,14.28
2023-05-02T08:53:15.546Z,14.34
2023-05-02T08:55:43.728Z,14.30
2023-05-02T08:58:14.661Z,14.35
2023-05-02T09:00:44.033Z,14.29
2023-05-02T09:03:21.348Z,14.37
2023-05-02T09:05:55.082Z,14.50
2023-05-02T09:08:24.971Z,14.39
2023-05-02T09:10:52.723Z,14.31
2023-05-02T09:13:30.613Z,14.11
2023-05-02T09:15:59.483Z,14.29
2023-05-02T09:18:29.742Z,14.53
2023-05-02T09:20:57.727Z,14.81
2023-05-02T09:23:35.133Z,14.80
2023-05-02T09:26:03.144Z,15.09
2023-05-02T09:28:41.842Z,15.35
2023-05-02T09:31:10.336Z,15.47
2023-05-02T09:33:38.461Z,15.66
2023-05-02T09:36:07.089Z,15.57
2023-05-02T09:38:35.897Z,15.71
2023-05-02T09:41:04.543Z,15.70
2023-05-02T09:43:32.860Z,15.71
2023-05-02T09:46:01.979Z,15.56
2023-05-02T09:48:30.599Z,15.20
2023-05-02T09:50:58.619Z,15.06
2023-05-02T09:53:27.660Z,15.12
2023-05-02T09:56:04.091Z,15.25
2023-05-02T09:58:32.037Z,15.37
2023-05-02T10:00:59.854Z,15.38
2023-05-02T10:03:28.932Z,15.25
2023-05-02T10:05:57.356Z,15.37
2023-05-02T10:08:28.448Z,15.72
2023-05-02T10:10:57.172Z,15.85
2023-05-02T10:13:32.006Z,15.88
2023-05-02T10:16:01.394Z,15.99
2023-05-02T10:18:31.903Z,16.08
2023-05-02T10:21:00.751Z,16.24
2023-05-02T10:23:29.201Z,16.44
2023-05-02T10:26:00.032Z,16.44
2023-05-02T10:28:29.997Z,16.42
2023-05-02T10:30:58.339Z,16.36
2023-05-02T10:33:26.122Z,16.60
2023-05-02T10:35:53.771Z,16.69
2023-05-02T10:38:23.354Z,16.77
2023-05-02T10:40:56.059Z,16.59
2023-05-02T10:43:25.749Z,16.51
2023-05-02T10:45:55.654Z,16.63
2023-05-02T10:48:24.898Z,16.83
2023-05-02T10:50:53.800Z,16.44
2023-05-02T10:53:28.708Z,16.62
2023-05-02T10:56:18.649Z,16.68
2023-05-02T10:58:46.936Z,16.57
2023-05-02T11:01:39.652Z,16.81
2023-05-02T11:04:08.187Z,16.89
2023-05-02T11:06:36.869Z,16.77
2023-05-02T11:09:35.290Z,16.66
2023-05-02T11:12:04.848Z,16.63
2023-05-02T11:14:49.562Z,16.72
2023-05-02T11:17:19.073Z,16.51
2023-05-02T11:20:29.029Z,16.74
2023-05-02T11:23:02.337Z,16.82
2023-05-02T11:25:39.990Z,16.94
2023-05-02T11:28:09.417Z,17.16
2023-05-02T11:30:44.606Z,17.20
2023-05-02T11:33:17.456Z,17.10
2023-05-02T11:35:46.637Z,17.15
2023-05-02T11:38:16.275Z,17.19
2023-05-02T11:40:58.476Z,17.34
2023-05-02T11:43:29.365Z,17.44
2023-05-02T11:46:00.058Z,17.62
2023-05-02T11:48:29.149Z,17.64
2023-05-02T11:50:58.206Z,17.66
2023-05-02T11:53:27.693Z,17.79
2023-05-02T11:55:57.253Z,17.68
2023-05-02T11:58:26.112Z,18.01
2023-05-02T12:00:54.425Z,18.12
2023-05-02T12:03:23.417Z,17.93
2023-05-02T12:05:52.503Z,18.02
2023-05-02T12:08:25.038Z,18.02
2023-05-02T12:10:54.115Z,17.72
2023-05-02T12:13:23.348Z,17.58
2023-05-02T12:15:51.705Z,17.58
2023-05-02T12:18:22.078Z,17.56
2023-05-02T12:20:49.834Z,17.63
2023-05-02T12:23:18.977Z,17.79
2023-05-02T12:25:46.485Z,17.32
2023-05-02T12:28:14.026Z,17.30
2023-05-02T12:30:41.777Z,17.08
2023-05-02T12:33:09.666Z,17.02
2023-05-02T12:35:37.378Z,17.15
2023-05-02T12:38:13.336Z,16.93
2023-05-02T12:40:48.136Z,16.76
2023-05-02T12:43:15.580Z,16.76
2023-05-02T12:45:43.694Z,16.72
2023-05-02T12:48:25.060Z,16.79
2023-05-02T12:50:53.016Z,17.05
2023-05-02T12:53:41.975Z,17.26
2023-05-02T12:56:13.947Z,17.26
2023-05-02T12:58:43.558Z,17.33
2023-05-02T13:01:11.290Z,17.34
2023-05-02T13:03:39.276Z,17.40
2023-05-02T13:06:07.259Z,17.45
2023-05-02T13:08:35.282Z,17.34
2023-05-02T13:11:03.870Z,17.37
2023-05-02T13:13:33.416Z,17.62
2023-05-02T13:16:00.995Z,17.83
2023-05-02T13:18:28.908Z,17.94
2023-05-02T13:20:56.457Z,17.83
2023-05-02T13:23:23.888Z,17.67
2023-05-02T13:25:51.329Z,17.62
2023-05-02T13:28:18.866Z,17.86
2023-05-02T13:30:47.741Z,17.84
2023-05-02T13:33:15.357Z,17.93
2023-05-02T13:35:42.955Z,17.87
2023-05-02T13:38:10.461Z,17.90
2023-05-02T13:40:37.959Z,17.90
2023-05-02T13:43:05.656Z,17.87
2023-05-02T13:45:33.524Z,17.90
2023-05-02T13:48:02.481Z,17.69
2023-05-02T13:50:29.970Z,17.83
2023-05-02T13:52:57.413Z,17.98
2023-05-02T13:55:24.930Z,18.01
2023-05-02T13:57:52.392Z,18.06
2023-05-02T14:00:20.988Z,18.17
2023-05-02T14:02:49.153Z,18.28
2023-05-02T14:05:18.023Z,18.30
2023-05-02T14:07:45.493Z,18.25
2023-05-02T14:10:12.963Z,18.16
2023-05-02T14:12:40.622Z,18.23
2023-05-02T14:15:09.686Z,18.14
2023-05-02T14:17:37.137Z,17.98
2023-05-02T14:20:05.799Z,17.97
2023-05-02T14:22:34.662Z,17.82
2023-05-02T14:25:02.188Z,17.77
2023-05-02T14:27:29.627Z,17.72
2023-05-02T14:29:57.169Z,17.69
2023-05-02T14:32:24.599Z,17.73
2023-05-02T14:34:52.051Z,17.86
2023-05-02T14:37:19.507Z,17.92
2023-05-02T14:39:51.634Z,18.10
2023-05-02T14:42:20.293Z,18.07
2023-05-02T14:44:47.721Z,18.23
2023-05-02T14:47:15.267Z,18.31
2023-05-02T14:49:42.864Z,18.26
2023-05-02T14:52:10.374Z,18.22
2023-05-02T14:54:37.878Z,18.00
2023-05-02T14:57:07.914Z,18.06
2023-05-02T14:59:35.874Z,18.10
2023-05-02T15:02:03.465Z,17.87
2023-05-02T15:04:31.194Z,17.94
2023-05-02T15:06:58.900Z,17.96
2023-05-02T15:09:26.924Z,17.86
2023-05-02T15:11:54.508Z,17.44
2023-05-02T15:14:23.447Z,17.40
2023-05-02T15:16:51.360Z,17.40
2023-05-02T15:19:18.925Z,17.27
2023-05-02T15:21:46.380Z,17.46
2023-05-02T15:24:13.873Z,17.15
2023-05-02T15:26:41.344Z,17.30
2023-05-02T15:29:08.851Z,17.40
2023-05-02T15:31:38.094Z,17.30
2023-05-02T15:34:05.656Z,17.33
2023-05-02T15:36:37.114Z,17.20
2023-05-02T15:39:04.620Z,17.12
2023-05-02T15:41:32.099Z,17.13
2023-05-02T15:44:00.013Z,17.01
2023-05-02T15:46:27.736Z,17.16
2023-05-02T15:48:56.778Z,16.96
2023-05-02T15:51:24.246Z,17.05
2023-05-02T15:53:52.615Z,16.77
2023-05-02T15:56:21.118Z,17.02
2023-05-02T15:58:48.767Z,17.01
2023-05-02T16:01:16.294Z,16.88
2023-05-02T16:03:44.011Z,16.95
2023-05-02T16:06:12.875Z,16.95
2023-05-02T16:08:40.300Z,16.87
2023-05-02T16:11:07.899Z,16.63
2023-05-02T16:13:35.452Z,16.78
2023-05-02T16:16:02.983Z,16.91
2023-05-02T16:18:31.160Z,16.96
2023-05-02T16:20:59.367Z,16.86
2023-05-02T16:23:28.536Z,17.03
2023-05-02T16:26:40.648Z,16.91
2023-05-02T16:29:08.117Z,16.52
2023-05-02T16:31:35.855Z,16.81
2023-05-02T16:34:03.930Z,16.87
2023-05-02T16:36:33.867Z,17.02
2023-05-02T16:39:07.952Z,17.01
2023-05-02T16:41:35.749Z,16.84
2023-05-02T16:44:03.249Z,16.75
2023-05-02T16:46:32.243Z,16.51
2023-05-02T16:48:59.749Z,16.53
2023-05-02T16:51:27.960Z,16.64
2023-05-02T16:53:55.584Z,16.61
2023-05-02T16:56:24.385Z,16.53
2023-05-02T16:58:51.816Z,16.55
2023-05-02T17:01:19.321Z,16.59
2023-05-02T17:03:46.949Z,16.69
2023-05-02T17:06:14.442Z,16.75
2023-05-02T17:08:42.016Z,16.94
2023-05-02T17:11:09.449Z,16.99
2023-05-02T17:13:38.485Z,16.87
2023-05-02T17:16:08.160Z,17.06
2023-05-02T17:18:35.820Z,17.21
2023-05-02T17:21:04.045Z,17.39
2023-05-02T17:23:31.739Z,17.12
2023-05-02T17:25:59.460Z,17.04
2023-05-02T17:28:26.981Z,16.71
2023-05-02T17:30:56.051Z,16.35
2023-05-02T17:33:23.573Z,16.29
2023-05-02T17:35:51.258Z,16.12
2023-05-02T17:38:18.700Z,16.11
2023-05-02T17:40:46.245Z,16.06
2023-05-02T17:43:13.713Z,15.98
2023-05-02T17:45:41.568Z,15.84
2023-05-02T17:48:11.091Z,15.71
2023-05-02T17:50:38.749Z,15.59
2023-05-02T17:53:06.561Z,15.45
2023-05-02T17:55:37.184Z,15.36
2023-05-02T17:58:04.719Z,15.34
2023-05-02T18:00:32.245Z,15.26
2023-05-02T18:02:59.810Z,15.21
2023-05-02T18:05:29.312Z,15.11
2023-05-02T18:07:58.707Z,15.03
2023-05-02T18:10:26.257Z,14.91
2023-05-02T18:12:53.759Z,14.86
2023-05-02T18:15:21.891Z,14.84
2023-05-02T18:17:49.409Z,14.85
2023-05-02T18:20:17.017Z,14.64
2023-05-02T18:22:46.113Z,14.61
2023-05-02T18:25:13.568Z,14.48
2023-05-02T18:27:41.046Z,14.36
2023-05-02T18:30:09.676Z,14.24
2023-05-02T18:32:37.210Z,14.31
2023-05-02T18:35:04.981Z,14.21
2023-05-02T18:37:32.465Z,14.07
2023-05-02T18:40:02.874Z,13.95
2023-05-02T18:42:30.367Z,13.84
2023-05-02T18:44:57.820Z,13.79
2023-05-02T18:47:25.396Z,13.67
2023-05-02T18:49:56.358Z,13.61
2023-05-02T18:52:24.567Z,13.59
2023-05-02T18:54:51.990Z,13.50
2023-05-02T18:57:21.459Z,13.38
2023-05-02T18:59:48.942Z,13.28
2023-05-02T19:02:16.438Z,13.28
2023-05-02T19:04:43.974Z,13.21
2023-05-02T19:07:11.393Z,13.13
2023-05-02T19:09:38.832Z,13.02
2023-05-02T19:12:06.494Z,12.98
2023-05-02T19:14:35.840Z,12.85
2023-05-02T19:17:05.540Z,12.77
2023-05-02T19:19:33.179Z,12.77
2023-05-02T19:22:01.125Z,12.64
2023-05-02T19:24:28.608Z,12.64
2023-05-02T19:26:56.418Z,12.59
2023-05-02T19:29:23.966Z,12.41
2023-05-02T19:31:52.811Z,12.32
2023-05-02T19:34:20.773Z,12.31
2023-05-02T19:36:48.203Z,12.23
2023-05-02T19:39:16.194Z,12.18
2023-05-02T19:41:44.135Z,12.10
2023-05-02T19:44:11.653Z,12.02
2023-05-02T19:46:39.193Z,11.93
2023-05-02T19:49:08.250Z,11.88
2023-05-02T19:51:35.694Z,11.88
2023-05-02T19:54:03.179Z,11.87
2023-05-02T19:56:30.690Z,11.72
2023-05-02T19:58:58.603Z,11.75
2023-05-02T20:01:26.652Z,11.73
2023-05-02T20:03:54.793Z,11.68
2023-05-02T20:06:23.758Z,11.61
2023-05-02T20:08:52.727Z,11.55
2023-05-02T20:11:20.225Z,11.53
2023-05-02T20:13:47.819Z,11.50
2023-05-02T20:16:16.032Z,11.46
2023-05-02T20:18:43.523Z,11.37
2023-05-02T20:21:11.079Z,11.41
2023-05-02T20:23:43.154Z,11.31
2023-05-02T20:26:10.863Z,11.33
2023-05-02T20:28:52.094Z,11.31
2023-05-02T20:31:19.551Z,11.25
2023-05-02T20:33:47.120Z,11.19
2023-05-02T20:36:15.633Z,11.19
2023-05-02T20:38:44.971Z,11.09
2023-05-02T20:41:13.809Z,11.05
2023-05-02T20:43:44.589Z,11.10
2023-05-02T20:46:12.993Z,11.09
2023-05-02T20:48:40.588Z,11.14
2023-05-02T20:51:08.636Z,11.07
2023-05-02T20:53:36.629Z,11.08
2023-05-02T20:56:06.052Z,11.00
2023-05-02T20:58:33.518Z,10.93
2023-05-02T21:01:01.051Z,10.87
2023-05-02T21:03:29.076Z,10.88
2023-05-02T21:05:59.433Z,10.85
2023-05-02T21:08:26.888Z,10.79
2023-05-02T21:10:54.624Z,10.75
2023-05-02T21:13:23.762Z,10.69
2023-05-02T21:15:51.276Z,10.59
2023-05-02T21:18:18.803Z,10.61
2023-05-02T21:20:49.076Z,10.40
2023-05-02T21:23:16.536Z,10.56
2023-05-02T21:25:44.130Z,10.51
2023-05-02T21:28:12.352Z,10.40
2023-05-02T21:30:41.281Z,10.38
2023-05-02T21:33:09.192Z,10.35
2023-05-02T21:35:36.861Z,10.39
2023-05-02T21:38:04.307Z,10.34
2023-05-02T21:40:32.304Z,10.28
2023-05-02T21:42:59.734Z,10.30
2023-05-02T21:45:27.641Z,10.25
2023-05-02T21:47:57.042Z,10.21
2023-05-02T21:50:24.744Z,10.10
2023-05-02T21:52:52.184Z,10.04
2023-05-02T21:55:19.663Z,10.04
2023-05-02T21:57:47.188Z,10.08
2023-05-02T22:00:15.307Z,9.95
2023-05-02T22:02:42.956Z,9.93
2023-05-02T22:05:13.608Z,9.86
2023-05-02T22:07:41.644Z,9.80
2023-05-02T22:10:11.518Z,9.82
2023-05-02T22:12:38.937Z,9.75
2023-05-02T22:15:08.255Z,9.71
2023-05-02T22:17:36.087Z,9.68
2023-05-02T22:20:03.969Z,9.62
2023-05-02T22:22:32.946Z,9.57
2023-05-02T22:25:02.688Z,9.57
2023-05-02T22:27:30.100Z,9.54
2023-05-02T22:29:57.542Z,9.53
2023-05-02T22:32:25.604Z,9.55
2023-05-02T22:34:53.137Z,9.46
2023-05-02T22:37:20.715Z,9.49
2023-05-02T22:39:49.529Z,9.46
2023-05-02T22:42:16.951Z,9.42
2023-05-02T22:44:53.638Z,9.38
2023-05-02T22:47:22.583Z,9.29
2023-05-02T22:49:51.006Z,9.30
2023-05-02T22:52:20.452Z,9.26
2023-05-02T22:54:49.381Z,9.17
2023-05-02T22:57:16.861Z,9.16
2023-05-02T22:59:44.334Z,9.17
2023-05-02T23:02:12.226Z,9.05
2023-05-02T23:04:39.721Z,9.04
2023-05-02T23:07:07.151Z,8.96
2023-05-02T23:09:34.658Z,8.92
2023-05-02T23:12:05.673Z,8.94
2023-05-02T23:14:33.282Z,8.91
2023-05-02T23:17:02.113Z,8.87
2023-05-02T23:19:30.019Z,8.88
2023-05-02T23:21:58.010Z,8.88
2023-05-02T23:24:25.531Z,8.75
2023-05-02T23:26:52.980Z,8.69
2023-05-02T23:29:21.769Z,8.81
2023-05-02T23:31:50.443Z,8.80
2023-05-02T23:34:17.987Z,8.79
2023-05-02T23:36:45.503Z,8.78
2023-05-02T23:39:13.375Z,8.80
2023-05-02T23:41:40.848Z,8.83
2023-05-02T23:44:08.269Z,8.82
2023-05-02T23:46:37.091Z,8.75
2023-05-02T23:49:04.573Z,8.65
2023-05-02T23:51:32.693Z,8.46
2023-05-02T23:54:00.182Z,8.52
2023-05-02T23:56:27.633Z,8.45
2023-05-02T23:58:57.224Z,8.41
